sensor_id;sensor_type;location;lat;lon;timestamp;temperature;humidity
22950;DHT22;11641;51.018;4.474;2023-04-07T00:02:07;10.10;99.90
22950;DHT22;11641;51.018;4.474;2023-04-07T00:04:36;10.00;99.90
22950;DHT22;11641;51.018;4.474;2023-04-07T00:07:02;10.00;99.90
22950;DHT22;11641;51.018;4.474;2023-04-07T00:09:28;10.00;99.90
22950;DHT22;11641;51.018;4.474;2023-04-07T00:11:53;10.00;99.90
22950;DHT22;11641;51.018;4.474;2023-04-07T00:14:19;10.00;99.90
22950;DHT22;11641;51.018;4.474;2023-04-07T00:16:44;10.00;99.90
22950;DHT22;11641;51.018;4.474;2023-04-07T00:19:10;10.00;99.90
22950;DHT22;11641;51.018;4.474;2023-04-07T00:21:36;10.00;99.90
22950;DHT22;11641;51.018;4.474;2023-04-07T00:24:04;10.00;99.90
22950;DHT22;11641;51.018;4.474;2023-04-07T00:26:32;10.00;99.90
22950;DHT22;11641;51.018;4.474;2023-04-07T00:28:58;10.10;99.90
22950;DHT22;11641;51.018;4.474;2023-04-07T00:31:27;9.90;99.90
22950;DHT22;11641;51.018;4.474;2023-04-07T00:33:52;10.00;99.90
22950;DHT22;11641;51.018;4.474;2023-04-07T00:36:18;9.90;99.90
22950;DHT22;11641;51.018;4.474;2023-04-07T00:38:44;9.90;99.90
22950;DHT22;11641;51.018;4.474;2023-04-07T00:41:09;10.00;99.90
22950;DHT22;11641;51.018;4.474;2023-04-07T00:43:35;9.90;99.90
22950;DHT22;11641;51.018;4.474;2023-04-07T00:46:04;9.90;99.90
22950;DHT22;11641;51.018;4.474;2023-04-07T00:48:30;9.90;99.90
22950;DHT22;11641;51.018;4.474;2023-04-07T00:50:56;9.90;99.90
22950;DHT22;11641;51.018;4.474;2023-04-07T00:53:21;9.90;99.90
22950;DHT22;11641;51.018;4.474;2023-04-07T00:55:47;9.80;99.90
22950;DHT22;11641;51.018;4.474;2023-04-07T00:58:13;9.80;99.90
22950;DHT22;11641;51.018;4.474;2023-04-07T01:00:47;9.80;99.90
22950;DHT22;11641;51.018;4.474;2023-04-07T01:03:26;9.80;99.90
22950;DHT22;11641;51.018;4.474;2023-04-07T01:05:58;9.90;99.90
22950;DHT22;11641;51.018;4.474;2023-04-07T01:11:48;9.80;99.90
22950;DHT22;11641;51.018;4.474;2023-04-07T01:14:17;9.80;99.90
22950;DHT22;11641;51.018;4.474;2023-04-07T01:16:46;9.70;99.90
22950;DHT22;11641;51.018;4.474;2023-04-07T01:19:19;9.70;99.90
22950;DHT22;11641;51.018;4.474;2023-04-07T01:21:58;9.70;99.90
22950;DHT22;11641;51.018;4.474;2023-04-07T01:30:37;9.90;99.90
22950;DHT22;11641;51.018;4.474;2023-04-07T01:33:04;9.90;99.90
22950;DHT22;11641;51.018;4.474;2023-04-07T01:35:33;9.90;99.90
22950;DHT22;11641;51.018;4.474;2023-04-07T01:37:59;9.90;99.90
22950;DHT22;11641;51.018;4.474;2023-04-07T01:40:26;9.90;99.90
22950;DHT22;11641;51.018;4.474;2023-04-07T01:42:53;9.90;99.90
22950;DHT22;11641;51.018;4.474;2023-04-07T01:45:25;9.80;99.90
22950;DHT22;11641;51.018;4.474;2023-04-07T01:47:52;9.80;99.90
22950;DHT22;11641;51.018;4.474;2023-04-07T01:50:19;9.80;99.90
22950;DHT22;11641;51.018;4.474;2023-04-07T01:52:48;9.90;99.90
22950;DHT22;11641;51.018;4.474;2023-04-07T01:55:14;9.70;99.90
22950;DHT22;11641;51.018;4.474;2023-04-07T01:57:40;9.80;99.90
22950;DHT22;11641;51.018;4.474;2023-04-07T02:00:06;9.70;99.90
22950;DHT22;11641;51.018;4.474;2023-04-07T02:02:35;9.70;99.90
22950;DHT22;11641;51.018;4.474;2023-04-07T02:05:08;9.80;99.90
22950;DHT22;11641;51.018;4.474;2023-04-07T02:08:01;9.80;99.90
22950;DHT22;11641;51.018;4.474;2023-04-07T02:10:29;9.80;99.90
22950;DHT22;11641;51.018;4.474;2023-04-07T02:12:57;9.70;99.90
22950;DHT22;11641;51.018;4.474;2023-04-07T02:15:25;9.50;99.90
22950;DHT22;11641;51.018;4.474;2023-04-07T02:17:53;9.40;99.90
22950;DHT22;11641;51.018;4.474;2023-04-07T02:20:21;9.40;99.90
22950;DHT22;11641;51.018;4.474;2023-04-07T02:22:48;9.50;99.90
22950;DHT22;11641;51.018;4.474;2023-04-07T02:25:27;9.50;99.90
22950;DHT22;11641;51.018;4.474;2023-04-07T02:27:55;9.60;99.90
22950;DHT22;11641;51.018;4.474;2023-04-07T02:30:21;9.50;99.90
22950;DHT22;11641;51.018;4.474;2023-04-07T02:32:46;9.60;99.90
22950;DHT22;11641;51.018;4.474;2023-04-07T02:35:13;9.60;99.90
22950;DHT22;11641;51.018;4.474;2023-04-07T02:37:38;9.50;99.90
22950;DHT22;11641;51.018;4.474;2023-04-07T02:40:05;9.40;99.90
22950;DHT22;11641;51.018;4.474;2023-04-07T02:42:31;9.40;99.90
22950;DHT22;11641;51.018;4.474;2023-04-07T02:44:59;9.50;99.90
22950;DHT22;11641;51.018;4.474;2023-04-07T02:47:25;9.40;99.90
22950;DHT22;11641;51.018;4.474;2023-04-07T02:49:51;9.50;99.90
22950;DHT22;11641;51.018;4.474;2023-04-07T02:52:17;9.50;99.90
22950;DHT22;11641;51.018;4.474;2023-04-07T02:54:43;9.40;99.90
22950;DHT22;11641;51.018;4.474;2023-04-07T02:57:08;9.30;99.90
22950;DHT22;11641;51.018;4.474;2023-04-07T02:59:34;9.20;99.90
22950;DHT22;11641;51.018;4.474;2023-04-07T03:02:02;9.10;99.90
22950;DHT22;11641;51.018;4.474;2023-04-07T03:04:28;9.10;99.90
22950;DHT22;11641;51.018;4.474;2023-04-07T03:06:53;9.10;99.90
22950;DHT22;11641;51.018;4.474;2023-04-07T03:09:20;9.10;99.90
22950;DHT22;11641;51.018;4.474;2023-04-07T03:11:49;9.30;99.90
22950;DHT22;11641;51.018;4.474;2023-04-07T03:14:15;9.30;99.90
22950;DHT22;11641;51.018;4.474;2023-04-07T03:16:41;9.30;99.90
22950;DHT22;11641;51.018;4.474;2023-04-07T03:19:07;9.20;99.90
22950;DHT22;11641;51.018;4.474;2023-04-07T03:21:33;9.20;99.90
22950;DHT22;11641;51.018;4.474;2023-04-07T03:24:01;9.20;99.90
22950;DHT22;11641;51.018;4.474;2023-04-07T03:26:27;9.20;99.90
22950;DHT22;11641;51.018;4.474;2023-04-07T03:28:53;9.20;99.90
22950;DHT22;11641;51.018;4.474;2023-04-07T03:31:18;9.20;99.90
22950;DHT22;11641;51.018;4.474;2023-04-07T03:33:44;9.20;99.90
22950;DHT22;11641;51.018;4.474;2023-04-07T03:36:12;9.10;99.90
22950;DHT22;11641;51.018;4.474;2023-04-07T03:38:38;9.20;99.90
22950;DHT22;11641;51.018;4.474;2023-04-07T03:41:06;9.20;99.90
22950;DHT22;11641;51.018;4.474;2023-04-07T03:43:33;9.40;99.90
22950;DHT22;11641;51.018;4.474;2023-04-07T03:46:00;9.40;99.90
22950;DHT22;11641;51.018;4.474;2023-04-07T03:48:25;9.40;99.90
22950;DHT22;11641;51.018;4.474;2023-04-07T03:50:51;9.30;99.90
22950;DHT22;11641;51.018;4.474;2023-04-07T03:53:17;9.30;99.90
22950;DHT22;11641;51.018;4.474;2023-04-07T03:55:43;9.40;99.90
22950;DHT22;11641;51.018;4.474;2023-04-07T03:58:12;9.40;99.90
22950;DHT22;11641;51.018;4.474;2023-04-07T04:00:38;9.30;99.90
22950;DHT22;11641;51.018;4.474;2023-04-07T04:03:04;9.40;99.90
22950;DHT22;11641;51.018;4.474;2023-04-07T04:05:30;9.30;99.90
22950;DHT22;11641;51.018;4.474;2023-04-07T04:07:56;9.30;99.90
22950;DHT22;11641;51.018;4.474;2023-04-07T04:10:21;9.20;99.90
22950;DHT22;11641;51.018;4.474;2023-04-07T04:12:48;9.30;99.90
22950;DHT22;11641;51.018;4.474;2023-04-07T04:15:14;9.30;99.90
22950;DHT22;11641;51.018;4.474;2023-04-07T04:17:40;9.40;99.90
22950;DHT22;11641;51.018;4.474;2023-04-07T04:20:07;9.50;99.90
22950;DHT22;11641;51.018;4.474;2023-04-07T04:22:33;9.50;99.90
22950;DHT22;11641;51.018;4.474;2023-04-07T04:24:59;9.60;99.90
22950;DHT22;11641;51.018;4.474;2023-04-07T04:27:25;9.60;99.90
22950;DHT22;11641;51.018;4.474;2023-04-07T04:29:51;9.60;99.90
22950;DHT22;11641;51.018;4.474;2023-04-07T04:32:18;9.60;99.90
22950;DHT22;11641;51.018;4.474;2023-04-07T04:34:44;9.60;99.90
22950;DHT22;11641;51.018;4.474;2023-04-07T04:37:10;9.50;99.90
22950;DHT22;11641;51.018;4.474;2023-04-07T04:39:36;9.40;99.90
22950;DHT22;11641;51.018;4.474;2023-04-07T04:42:02;9.40;99.90
22950;DHT22;11641;51.018;4.474;2023-04-07T04:44:28;9.30;99.90
22950;DHT22;11641;51.018;4.474;2023-04-07T04:46:55;9.20;99.90
22950;DHT22;11641;51.018;4.474;2023-04-07T04:49:21;9.10;99.90
22950;DHT22;11641;51.018;4.474;2023-04-07T04:51:49;9.00;99.90
22950;DHT22;11641;51.018;4.474;2023-04-07T04:54:17;8.90;99.90
22950;DHT22;11641;51.018;4.474;2023-04-07T04:56:42;8.80;99.90
22950;DHT22;11641;51.018;4.474;2023-04-07T04:59:08;8.70;99.90
22950;DHT22;11641;51.018;4.474;2023-04-07T05:01:34;8.70;99.90
22950;DHT22;11641;51.018;4.474;2023-04-07T05:03:59;8.70;99.90
22950;DHT22;11641;51.018;4.474;2023-04-07T05:06:25;8.60;99.90
22950;DHT22;11641;51.018;4.474;2023-04-07T05:08:52;8.50;99.90
22950;DHT22;11641;51.018;4.474;2023-04-07T05:11:18;8.50;99.90
22950;DHT22;11641;51.018;4.474;2023-04-07T05:13:43;8.40;99.90
22950;DHT22;11641;51.018;4.474;2023-04-07T05:16:11;8.40;99.90
22950;DHT22;11641;51.018;4.474;2023-04-07T05:18:37;8.30;99.90
22950;DHT22;11641;51.018;4.474;2023-04-07T05:21:05;8.20;99.90
22950;DHT22;11641;51.018;4.474;2023-04-07T05:23:31;8.20;99.90
22950;DHT22;11641;51.018;4.474;2023-04-07T05:25:56;8.10;99.90
22950;DHT22;11641;51.018;4.474;2023-04-07T05:28:27;8.10;99.90
22950;DHT22;11641;51.018;4.474;2023-04-07T05:30:53;8.20;99.90
22950;DHT22;11641;51.018;4.474;2023-04-07T05:33:19;8.40;99.90
22950;DHT22;11641;51.018;4.474;2023-04-07T05:35:45;8.50;99.90
22950;DHT22;11641;51.018;4.474;2023-04-07T05:38:11;8.70;99.90
22950;DHT22;11641;51.018;4.474;2023-04-07T05:40:38;8.80;99.90
22950;DHT22;11641;51.018;4.474;2023-04-07T05:43:03;8.90;99.90
22950;DHT22;11641;51.018;4.474;2023-04-07T05:45:29;9.00;99.90
22950;DHT22;11641;51.018;4.474;2023-04-07T05:47:56;9.10;99.90
22950;DHT22;11641;51.018;4.474;2023-04-07T05:50:24;9.10;99.90
22950;DHT22;11641;51.018;4.474;2023-04-07T05:52:52;9.10;99.90
22950;DHT22;11641;51.018;4.474;2023-04-07T05:55:18;9.20;99.90
22950;DHT22;11641;51.018;4.474;2023-04-07T05:57:43;9.20;99.90
22950;DHT22;11641;51.018;4.474;2023-04-07T06:00:09;9.30;99.90
22950;DHT22;11641;51.018;4.474;2023-04-07T06:02:35;9.40;99.90
22950;DHT22;11641;51.018;4.474;2023-04-07T06:05:03;9.40;99.90
22950;DHT22;11641;51.018;4.474;2023-04-07T06:07:29;9.50;99.90
22950;DHT22;11641;51.018;4.474;2023-04-07T06:09:55;9.50;99.90
22950;DHT22;11641;51.018;4.474;2023-04-07T06:12:22;9.40;99.90
22950;DHT22;11641;51.018;4.474;2023-04-07T06:14:55;9.40;99.90
22950;DHT22;11641;51.018;4.474;2023-04-07T06:17:21;9.40;99.90
22950;DHT22;11641;51.018;4.474;2023-04-07T06:19:47;9.40;99.90
22950;DHT22;11641;51.018;4.474;2023-04-07T06:22:13;9.50;99.90
22950;DHT22;11641;51.018;4.474;2023-04-07T06:24:39;9.40;99.90
22950;DHT22;11641;51.018;4.474;2023-04-07T06:27:07;9.30;99.90
22950;DHT22;11641;51.018;4.474;2023-04-07T06:29:33;9.40;99.90
22950;DHT22;11641;51.018;4.474;2023-04-07T06:31:59;9.40;99.90
22950;DHT22;11641;51.018;4.474;2023-04-07T06:34:27;9.40;99.90
22950;DHT22;11641;51.018;4.474;2023-04-07T06:36:52;9.40;99.90
22950;DHT22;11641;51.018;4.474;2023-04-07T06:39:18;9.30;99.90
22950;DHT22;11641;51.018;4.474;2023-04-07T06:41:44;9.40;99.90
22950;DHT22;11641;51.018;4.474;2023-04-07T06:44:13;9.40;99.90
22950;DHT22;11641;51.018;4.474;2023-04-07T06:46:39;9.50;99.90
22950;DHT22;11641;51.018;4.474;2023-04-07T06:49:06;9.60;99.90
22950;DHT22;11641;51.018;4.474;2023-04-07T06:51:34;9.60;99.90
22950;DHT22;11641;51.018;4.474;2023-04-07T06:54:00;9.70;99.90
22950;DHT22;11641;51.018;4.474;2023-04-07T06:56:25;9.70;99.90
22950;DHT22;11641;51.018;4.474;2023-04-07T06:58:53;9.80;99.90
22950;DHT22;11641;51.018;4.474;2023-04-07T07:01:22;9.70;99.90
22950;DHT22;11641;51.018;4.474;2023-04-07T07:03:47;9.80;99.90
22950;DHT22;11641;51.018;4.474;2023-04-07T07:06:13;9.80;99.90
22950;DHT22;11641;51.018;4.474;2023-04-07T07:08:38;9.80;99.90
22950;DHT22;11641;51.018;4.474;2023-04-07T07:11:04;9.90;99.90
22950;DHT22;11641;51.018;4.474;2023-04-07T07:13:32;10.00;99.90
22950;DHT22;11641;51.018;4.474;2023-04-07T07:15:57;10.20;99.90
22950;DHT22;11641;51.018;4.474;2023-04-07T07:18:23;10.40;99.90
22950;DHT22;11641;51.018;4.474;2023-04-07T07:20:51;10.50;99.90
22950;DHT22;11641;51.018;4.474;2023-04-07T07:23:17;10.40;99.90
22950;DHT22;11641;51.018;4.474;2023-04-07T07:25:42;10.70;99.90
22950;DHT22;11641;51.018;4.474;2023-04-07T07:28:10;11.00;99.90
22950;DHT22;11641;51.018;4.474;2023-04-07T07:30:38;11.40;99.90
22950;DHT22;11641;51.018;4.474;2023-04-07T07:33:05;11.20;99.90
22950;DHT22;11641;51.018;4.474;2023-04-07T07:35:30;11.20;99.90
22950;DHT22;11641;51.018;4.474;2023-04-07T07:37:57;11.00;99.90
22950;DHT22;11641;51.018;4.474;2023-04-07T07:40:22;11.10;99.90
22950;DHT22;11641;51.018;4.474;2023-04-07T07:42:56;11.30;99.90
22950;DHT22;11641;51.018;4.474;2023-04-07T07:45:21;11.60;99.90
22950;DHT22;11641;51.018;4.474;2023-04-07T07:47:47;11.80;99.90
22950;DHT22;11641;51.018;4.474;2023-04-07T07:50:12;11.70;99.90
22950;DHT22;11641;51.018;4.474;2023-04-07T07:52:38;11.50;99.90
22950;DHT22;11641;51.018;4.474;2023-04-07T07:55:06;11.60;99.90
22950;DHT22;11641;51.018;4.474;2023-04-07T07:57:32;11.40;99.90
22950;DHT22;11641;51.018;4.474;2023-04-07T08:00:01;11.30;99.90
22950;DHT22;11641;51.018;4.474;2023-04-07T08:02:27;11.60;99.90
22950;DHT22;11641;51.018;4.474;2023-04-07T08:04:59;11.70;99.90
22950;DHT22;11641;51.018;4.474;2023-04-07T08:07:27;11.90;99.90
22950;DHT22;11641;51.018;4.474;2023-04-07T08:09:53;12.10;99.90
22950;DHT22;11641;51.018;4.474;2023-04-07T08:12:19;12.60;99.90
22950;DHT22;11641;51.018;4.474;2023-04-07T08:14:44;12.50;99.90
22950;DHT22;11641;51.018;4.474;2023-04-07T08:17:13;12.50;99.90
22950;DHT22;11641;51.018;4.474;2023-04-07T08:19:39;12.40;99.90
22950;DHT22;11641;51.018;4.474;2023-04-07T08:22:05;12.40;99.90
22950;DHT22;11641;51.018;4.474;2023-04-07T08:24:30;12.30;99.90
22950;DHT22;11641;51.018;4.474;2023-04-07T08:26:56;11.90;99.90
22950;DHT22;11641;51.018;4.474;2023-04-07T08:29:22;11.40;99.90
22950;DHT22;11641;51.018;4.474;2023-04-07T08:31:47;11.40;99.90
22950;DHT22;11641;51.018;4.474;2023-04-07T08:34:13;11.10;99.90
22950;DHT22;11641;51.018;4.474;2023-04-07T08:36:43;11.10;99.90
22950;DHT22;11641;51.018;4.474;2023-04-07T08:39:09;11.30;99.90
22950;DHT22;11641;51.018;4.474;2023-04-07T08:41:37;11.50;99.90
22950;DHT22;11641;51.018;4.474;2023-04-07T08:44:05;11.40;99.90
22950;DHT22;11641;51.018;4.474;2023-04-07T08:46:32;11.40;99.90
22950;DHT22;11641;51.018;4.474;2023-04-07T08:49:01;11.60;99.90
22950;DHT22;11641;51.018;4.474;2023-04-07T08:51:31;12.10;99.90
22950;DHT22;11641;51.018;4.474;2023-04-07T08:54:10;12.50;99.90
22950;DHT22;11641;51.018;4.474;2023-04-07T08:56:44;13.00;99.90
22950;DHT22;11641;51.018;4.474;2023-04-07T08:59:12;12.80;99.90
22950;DHT22;11641;51.018;4.474;2023-04-07T09:01:39;13.10;99.90
22950;DHT22;11641;51.018;4.474;2023-04-07T09:04:08;14.10;99.90
22950;DHT22;11641;51.018;4.474;2023-04-07T09:06:35;14.10;99.90
22950;DHT22;11641;51.018;4.474;2023-04-07T09:09:02;13.80;99.90
22950;DHT22;11641;51.018;4.474;2023-04-07T09:11:35;13.40;99.90
22950;DHT22;11641;51.018;4.474;2023-04-07T09:14:00;13.20;99.90
22950;DHT22;11641;51.018;4.474;2023-04-07T09:16:28;13.00;99.90
22950;DHT22;11641;51.018;4.474;2023-04-07T09:18:54;12.70;99.90
22950;DHT22;11641;51.018;4.474;2023-04-07T09:21:19;13.40;99.90
22950;DHT22;11641;51.018;4.474;2023-04-07T09:23:49;14.40;99.90
22950;DHT22;11641;51.018;4.474;2023-04-07T09:28:44;15.90;99.90
22950;DHT22;11641;51.018;4.474;2023-04-07T09:31:11;16.30;99.90
22950;DHT22;11641;51.018;4.474;2023-04-07T09:33:36;16.30;99.90
22950;DHT22;11641;51.018;4.474;2023-04-07T09:36:05;16.20;99.90
22950;DHT22;11641;51.018;4.474;2023-04-07T09:38:37;15.90;99.90
22950;DHT22;11641;51.018;4.474;2023-04-07T09:41:14;15.30;99.90
22950;DHT22;11641;51.018;4.474;2023-04-07T09:43:43;15.60;99.90
22950;DHT22;11641;51.018;4.474;2023-04-07T09:46:16;16.00;99.90
22950;DHT22;11641;51.018;4.474;2023-04-07T09:48:44;16.60;99.90
22950;DHT22;11641;51.018;4.474;2023-04-07T09:54:03;15.70;99.90
22950;DHT22;11641;51.018;4.474;2023-04-07T09:56:29;15.80;99.90
22950;DHT22;11641;51.018;4.474;2023-04-07T09:58:55;15.40;99.90
22950;DHT22;11641;51.018;4.474;2023-04-07T10:01:21;14.90;99.90
22950;DHT22;11641;51.018;4.474;2023-04-07T10:03:47;14.40;99.90
22950;DHT22;11641;51.018;4.474;2023-04-07T10:06:15;14.10;99.90
22950;DHT22;11641;51.018;4.474;2023-04-07T10:08:41;14.10;99.90
22950;DHT22;11641;51.018;4.474;2023-04-07T10:11:08;14.40;99.90
22950;DHT22;11641;51.018;4.474;2023-04-07T10:13:36;14.60;99.90
22950;DHT22;11641;51.018;4.474;2023-04-07T10:16:05;14.60;99.90
22950;DHT22;11641;51.018;4.474;2023-04-07T10:18:33;14.50;99.90
22950;DHT22;11641;51.018;4.474;2023-04-07T10:21:06;14.30;99.90
22950;DHT22;11641;51.018;4.474;2023-04-07T10:26:22;14.60;99.90
22950;DHT22;11641;51.018;4.474;2023-04-07T10:28:54;14.60;99.90
22950;DHT22;11641;51.018;4.474;2023-04-07T10:31:22;14.60;99.90
22950;DHT22;11641;51.018;4.474;2023-04-07T10:33:50;15.20;99.90
22950;DHT22;11641;51.018;4.474;2023-04-07T10:36:20;14.90;99.90
22950;DHT22;11641;51.018;4.474;2023-04-07T10:41:31;14.60;99.90
22950;DHT22;11641;51.018;4.474;2023-04-07T10:43:58;14.50;99.90
22950;DHT22;11641;51.018;4.474;2023-04-07T10:49:14;14.80;99.90
22950;DHT22;11641;51.018;4.474;2023-04-07T10:51:42;15.10;99.90
22950;DHT22;11641;51.018;4.474;2023-04-07T10:54:19;14.30;99.90
22950;DHT22;11641;51.018;4.474;2023-04-07T10:59:29;14.10;99.90
22950;DHT22;11641;51.018;4.474;2023-04-07T11:04:48;13.70;99.90
22950;DHT22;11641;51.018;4.474;2023-04-07T11:07:14;13.80;99.90
22950;DHT22;11641;51.018;4.474;2023-04-07T11:09:48;13.40;99.90
22950;DHT22;11641;51.018;4.474;2023-04-07T11:12:23;13.40;99.90
22950;DHT22;11641;51.018;4.474;2023-04-07T11:14:49;13.80;99.90
22950;DHT22;11641;51.018;4.474;2023-04-07T11:17:17;14.10;99.90
22950;DHT22;11641;51.018;4.474;2023-04-07T11:19:52;14.20;99.90
22950;DHT22;11641;51.018;4.474;2023-04-07T11:22:18;14.00;99.90
22950;DHT22;11641;51.018;4.474;2023-04-07T11:24:45;14.70;99.90
22950;DHT22;11641;51.018;4.474;2023-04-07T11:27:15;14.90;99.90
22950;DHT22;11641;51.018;4.474;2023-04-07T11:29:41;15.20;99.90
22950;DHT22;11641;51.018;4.474;2023-04-07T11:32:07;15.80;99.90
22950;DHT22;11641;51.018;4.474;2023-04-07T11:34:34;16.50;99.90
22950;DHT22;11641;51.018;4.474;2023-04-07T11:37:19;16.50;99.90
22950;DHT22;11641;51.018;4.474;2023-04-07T11:39:54;16.60;99.90
22950;DHT22;11641;51.018;4.474;2023-04-07T11:42:42;16.30;99.90
22950;DHT22;11641;51.018;4.474;2023-04-07T11:45:17;16.10;99.90
22950;DHT22;11641;51.018;4.474;2023-04-07T11:47:44;16.20;99.90
22950;DHT22;11641;51.018;4.474;2023-04-07T11:50:13;16.40;99.90
22950;DHT22;11641;51.018;4.474;2023-04-07T11:52:46;16.20;99.90
22950;DHT22;11641;51.018;4.474;2023-04-07T11:55:19;16.00;99.90
22950;DHT22;11641;51.018;4.474;2023-04-07T11:57:51;15.20;99.90
22950;DHT22;11641;51.018;4.474;2023-04-07T12:00:17;15.10;99.90
22950;DHT22;11641;51.018;4.474;2023-04-07T12:02:45;15.20;99.90
22950;DHT22;11641;51.018;4.474;2023-04-07T12:05:11;15.80;99.90
22950;DHT22;11641;51.018;4.474;2023-04-07T12:07:38;16.60;99.90
22950;DHT22;11641;51.018;4.474;2023-04-07T12:10:23;17.20;99.90
22950;DHT22;11641;51.018;4.474;2023-04-07T12:12:50;17.40;99.90
22950;DHT22;11641;51.018;4.474;2023-04-07T12:15:18;17.10;99.90
22950;DHT22;11641;51.018;4.474;2023-04-07T12:17:46;16.80;99.90
22950;DHT22;11641;51.018;4.474;2023-04-07T12:20:13;17.10;99.90
22950;DHT22;11641;51.018;4.474;2023-04-07T12:22:39;18.40;99.90
22950;DHT22;11641;51.018;4.474;2023-04-07T12:25:08;19.40;99.90
22950;DHT22;11641;51.018;4.474;2023-04-07T12:27:34;19.30;99.90
22950;DHT22;11641;51.018;4.474;2023-04-07T12:29:59;20.00;99.90
22950;DHT22;11641;51.018;4.474;2023-04-07T12:32:25;20.70;99.90
22950;DHT22;11641;51.018;4.474;2023-04-07T12:34:53;19.60;99.90
22950;DHT22;11641;51.018;4.474;2023-04-07T12:37:19;18.70;99.90
22950;DHT22;11641;51.018;4.474;2023-04-07T12:39:45;18.60;99.90
22950;DHT22;11641;51.018;4.474;2023-04-07T12:42:10;18.80;99.90
22950;DHT22;11641;51.018;4.474;2023-04-07T12:44:37;19.30;99.90
22950;DHT22;11641;51.018;4.474;2023-04-07T12:47:02;18.00;99.90
22950;DHT22;11641;51.018;4.474;2023-04-07T12:49:30;16.60;99.90
22950;DHT22;11641;51.018;4.474;2023-04-07T12:51:58;15.80;99.90
22950;DHT22;11641;51.018;4.474;2023-04-07T12:54:27;15.20;99.90
22950;DHT22;11641;51.018;4.474;2023-04-07T12:56:57;15.30;99.90
22950;DHT22;11641;51.018;4.474;2023-04-07T12:59:24;14.90;99.90
22950;DHT22;11641;51.018;4.474;2023-04-07T13:01:52;14.50;99.90
22950;DHT22;11641;51.018;4.474;2023-04-07T13:04:18;14.60;99.90
22950;DHT22;11641;51.018;4.474;2023-04-07T13:06:48;14.20;99.90
22950;DHT22;11641;51.018;4.474;2023-04-07T13:09:14;14.30;99.90
22950;DHT22;11641;51.018;4.474;2023-04-07T13:11:39;14.50;99.90
22950;DHT22;11641;51.018;4.474;2023-04-07T13:14:07;14.50;99.90
22950;DHT22;11641;51.018;4.474;2023-04-07T13:16:38;14.50;99.90
22950;DHT22;11641;51.018;4.474;2023-04-07T13:19:04;14.50;99.90
22950;DHT22;11641;51.018;4.474;2023-04-07T13:21:30;14.40;99.90
22950;DHT22;11641;51.018;4.474;2023-04-07T13:23:55;14.10;99.90
22950;DHT22;11641;51.018;4.474;2023-04-07T13:26:24;14.00;99.90
22950;DHT22;11641;51.018;4.474;2023-04-07T13:28:53;13.90;99.90
22950;DHT22;11641;51.018;4.474;2023-04-07T13:31:21;13.50;99.90
22950;DHT22;11641;51.018;4.474;2023-04-07T13:33:48;13.50;99.90
22950;DHT22;11641;51.018;4.474;2023-04-07T13:36:15;13.50;99.90
22950;DHT22;11641;51.018;4.474;2023-04-07T13:38:41;13.80;99.90
22950;DHT22;11641;51.018;4.474;2023-04-07T13:41:07;13.80;99.90
22950;DHT22;11641;51.018;4.474;2023-04-07T13:43:32;13.90;99.90
22950;DHT22;11641;51.018;4.474;2023-04-07T13:46:00;14.20;99.90
22950;DHT22;11641;51.018;4.474;2023-04-07T13:48:28;14.20;99.90
22950;DHT22;11641;51.018;4.474;2023-04-07T13:50:56;14.40;99.90
22950;DHT22;11641;51.018;4.474;2023-04-07T13:53:22;14.00;99.90
22950;DHT22;11641;51.018;4.474;2023-04-07T13:55:48;13.70;99.90
22950;DHT22;11641;51.018;4.474;2023-04-07T13:58:13;13.70;99.90
22950;DHT22;11641;51.018;4.474;2023-04-07T14:00:41;13.20;99.90
22950;DHT22;11641;51.018;4.474;2023-04-07T14:03:07;13.10;99.90
22950;DHT22;11641;51.018;4.474;2023-04-07T14:05:32;13.00;99.90
22950;DHT22;11641;51.018;4.474;2023-04-07T14:08:02;13.20;99.90
22950;DHT22;11641;51.018;4.474;2023-04-07T14:10:27;13.40;99.90
22950;DHT22;11641;51.018;4.474;2023-04-07T14:12:53;13.60;99.90
22950;DHT22;11641;51.018;4.474;2023-04-07T14:15:19;14.20;99.90
22950;DHT22;11641;51.018;4.474;2023-04-07T14:17:47;14.30;99.90
22950;DHT22;11641;51.018;4.474;2023-04-07T14:20:15;14.70;99.90
22950;DHT22;11641;51.018;4.474;2023-04-07T14:22:43;14.50;99.90
22950;DHT22;11641;51.018;4.474;2023-04-07T14:25:09;14.30;99.90
22950;DHT22;11641;51.018;4.474;2023-04-07T14:27:35;13.60;99.90
22950;DHT22;11641;51.018;4.474;2023-04-07T14:30:01;13.50;99.90
22950;DHT22;11641;51.018;4.474;2023-04-07T14:32:31;14.10;99.90
22950;DHT22;11641;51.018;4.474;2023-04-07T14:34:58;15.20;99.90
22950;DHT22;11641;51.018;4.474;2023-04-07T14:37:26;17.80;99.90
22950;DHT22;11641;51.018;4.474;2023-04-07T14:39:52;19.20;99.90
22950;DHT22;11641;51.018;4.474;2023-04-07T14:42:19;20.30;99.90
22950;DHT22;11641;51.018;4.474;2023-04-07T14:44:45;20.20;99.90
22950;DHT22;11641;51.018;4.474;2023-04-07T14:47:13;19.30;99.90
22950;DHT22;11641;51.018;4.474;2023-04-07T14:49:39;18.60;99.90
22950;DHT22;11641;51.018;4.474;2023-04-07T14:52:04;19.20;99.90
22950;DHT22;11641;51.018;4.474;2023-04-07T14:54:30;21.70;99.40
22950;DHT22;11641;51.018;4.474;2023-04-07T14:56:56;24.00;93.20
22950;DHT22;11641;51.018;4.474;2023-04-07T14:59:21;24.30;90.30
22950;DHT22;11641;51.018;4.474;2023-04-07T15:01:47;24.90;85.30
22950;DHT22;11641;51.018;4.474;2023-04-07T15:04:12;25.30;84.30
22950;DHT22;11641;51.018;4.474;2023-04-07T15:06:43;25.20;82.20
22950;DHT22;11641;51.018;4.474;2023-04-07T15:09:11;27.40;77.60
22950;DHT22;11641;51.018;4.474;2023-04-07T15:11:37;27.10;73.80
22950;DHT22;11641;51.018;4.474;2023-04-07T15:14:05;25.10;73.60
22950;DHT22;11641;51.018;4.474;2023-04-07T15:16:33;23.40;80.70
22950;DHT22;11641;51.018;4.474;2023-04-07T15:18:59;23.20;81.60
22950;DHT22;11641;51.018;4.474;2023-04-07T15:21:28;20.20;90.40
22950;DHT22;11641;51.018;4.474;2023-04-07T15:23:53;18.00;99.20
22950;DHT22;11641;51.018;4.474;2023-04-07T15:26:21;15.80;99.90
22950;DHT22;11641;51.018;4.474;2023-04-07T15:28:47;14.70;99.90
22950;DHT22;11641;51.018;4.474;2023-04-07T15:31:13;14.40;99.90
22950;DHT22;11641;51.018;4.474;2023-04-07T15:33:39;14.30;99.90
22950;DHT22;11641;51.018;4.474;2023-04-07T15:36:06;14.10;99.90
22950;DHT22;11641;51.018;4.474;2023-04-07T15:38:35;13.80;99.90
22950;DHT22;11641;51.018;4.474;2023-04-07T15:41:03;13.30;99.90
22950;DHT22;11641;51.018;4.474;2023-04-07T15:43:29;13.20;99.90
22950;DHT22;11641;51.018;4.474;2023-04-07T15:45:54;13.10;99.90
22950;DHT22;11641;51.018;4.474;2023-04-07T15:48:21;13.50;99.90
22950;DHT22;11641;51.018;4.474;2023-04-07T15:50:46;13.40;99.90
22950;DHT22;11641;51.018;4.474;2023-04-07T15:53:16;13.20;99.90
22950;DHT22;11641;51.018;4.474;2023-04-07T15:55:41;13.30;99.90
22950;DHT22;11641;51.018;4.474;2023-04-07T15:58:08;13.20;99.90
22950;DHT22;11641;51.018;4.474;2023-04-07T16:00:37;13.20;99.90
22950;DHT22;11641;51.018;4.474;2023-04-07T16:03:03;12.90;99.90
22950;DHT22;11641;51.018;4.474;2023-04-07T16:05:29;12.80;99.90
22950;DHT22;11641;51.018;4.474;2023-04-07T16:07:55;12.80;99.90